createdAt,value
2022-09-05T00:00:19.958Z,102030.78
2022-09-05T00:03:04.583Z,102029.00
2022-09-05T00:06:13.459Z,102032.63
2022-09-05T00:09:04.980Z,102030.84
2022-09-05T00:11:46.805Z,102028.25
2022-09-05T00:15:15.956Z,102026.56
2022-09-05T00:18:09.838Z,102034.56
2022-09-05T00:24:21.602Z,102030.19
2022-09-05T00:24:34.561Z,102025.75
2022-09-05T00:27:16.556Z,102031.19
2022-09-05T00:31:51.261Z,102024.03
2022-09-05T00:33:41.074Z,102021.44
2022-09-05T00:36:15.675Z,102025.94
2022-09-05T00:38:58.726Z,102025.97
2022-09-05T00:41:29.092Z,102020.69
2022-09-05T00:44:03.887Z,102020.75
2022-09-05T00:46:40.098Z,102015.47
2022-09-05T00:49:22.558Z,102016.38
2022-09-05T00:52:23.341Z,102020.88
2022-09-05T00:54:52.815Z,102029.00
2022-09-05T00:57:42.575Z,102024.63
2022-09-05T01:00:33.877Z,102022.03
2022-09-05T01:03:09.899Z,102019.38
2022-09-05T01:06:06.879Z,102021.22
2022-09-05T01:09:10.492Z,102026.63
2022-09-05T01:11:50.874Z,102021.31
2022-09-05T01:14:31.213Z,102026.69
2022-09-05T01:17:19.624Z,102019.59
2022-09-05T01:20:19.321Z,102024.09
2022-09-05T01:23:00.920Z,102023.25
2022-09-05T01:25:55.015Z,102026.84
2022-09-05T01:29:16.145Z,102022.41
2022-09-05T01:31:29.970Z,102021.56
2022-09-05T01:34:16.667Z,102025.13
2022-09-05T01:37:24.836Z,102028.75
2022-09-05T01:40:20.150Z,102023.47
2022-09-05T01:43:01.731Z,102019.91
2022-09-05T01:45:55.548Z,102019.97
2022-09-05T01:48:49.591Z,102029.78
2022-09-05T01:52:05.995Z,102020.91
2022-09-05T01:54:47.843Z,102017.38
2022-09-05T01:57:48.047Z,102026.28
2022-09-05T02:00:22.991Z,102023.69
2022-09-05T02:03:13.902Z,102021.91
2022-09-05T02:06:06.704Z,102020.16
2022-09-05T02:09:01.653Z,102017.53
2022-09-05T02:11:45.422Z,102017.59
2022-09-05T02:14:34.259Z,102018.53
2022-09-05T02:17:49.968Z,102020.31
2022-09-05T02:20:26.597Z,102015.94
2022-09-05T02:23:26.036Z,102015.00
2022-09-05T02:26:05.824Z,102023.94
2022-09-05T02:28:43.810Z,102028.41
2022-09-05T02:31:24.324Z,102030.22
2022-09-05T02:34:11.449Z,102024.03
2022-09-05T02:36:48.798Z,102033.84
2022-09-05T02:45:03.233Z,102033.84
2022-09-05T02:45:21.363Z,102028.53
2022-09-05T02:45:25.555Z,102026.78
2022-09-05T02:47:55.001Z,102026.78
2022-09-05T02:54:10.870Z,102024.13
2022-09-05T02:57:40.796Z,102017.06
2022-09-05T02:57:46.033Z,102025.06
2022-09-05T02:59:42.100Z,102025.97
2022-09-05T03:02:27.292Z,102023.34
2022-09-05T03:05:09.823Z,102021.59
2022-09-05T03:07:56.454Z,102017.16
2022-09-05T03:10:53.220Z,102015.41
2022-09-05T03:13:56.599Z,102023.41
2022-09-05T03:16:49.229Z,102020.75
2022-09-05T03:19:56.882Z,102026.09
2022-09-05T03:22:27.314Z,102019.91
2022-09-05T03:25:39.458Z,102023.50
2022-09-05T03:28:34.131Z,102014.59
2022-09-05T03:31:20.554Z,102016.38
2022-09-05T03:34:13.254Z,102023.50
2022-09-05T03:37:32.762Z,102027.97
2022-09-05T03:40:33.226Z,102027.09
2022-09-05T03:43:31.015Z,102022.69
2022-09-05T03:46:20.656Z,102034.28
2022-09-05T03:54:32.400Z,102020.97
2022-09-05T03:57:14.379Z,102029.88
2022-09-05T03:57:27.903Z,102031.63
2022-09-05T03:59:01.892Z,102039.66
2022-09-05T04:03:30.835Z,102041.41
2022-09-05T04:08:24.511Z,102043.25
2022-09-05T04:08:28.656Z,102036.13
2022-09-05T04:11:08.874Z,102045.03
2022-09-05T04:13:50.280Z,102049.47
2022-09-05T04:16:39.844Z,102051.25
2022-09-05T04:19:20.218Z,102057.50
2022-09-05T04:22:03.720Z,102050.44
2022-09-05T04:24:50.951Z,102045.09
2022-09-05T04:27:29.999Z,102042.47
2022-09-05T04:29:58.551Z,102052.22
2022-09-05T04:32:55.309Z,102047.81
2022-09-05T04:35:49.773Z,102046.06
2022-09-05T04:38:35.561Z,102050.50
2022-09-05T04:41:13.279Z,102049.63
2022-09-05T04:43:58.931Z,102046.97
2022-09-05T04:46:48.434Z,102053.19
2022-09-05T04:49:24.413Z,102045.22
2022-09-05T04:52:00.176Z,102046.09
2022-09-05T04:54:51.408Z,102050.56
2022-09-05T04:57:35.715Z,102059.41
2022-09-05T05:06:04.956Z,102060.34
2022-09-05T05:06:17.343Z,102057.66
2022-09-05T05:06:31.778Z,102065.66
2022-09-05T05:08:58.462Z,102067.44
2022-09-05T05:18:01.501Z,102058.56
2022-09-05T05:18:10.720Z,102072.78
2022-09-05T05:18:36.700Z,102078.09
2022-09-05T05:21:03.093Z,102083.41
2022-09-05T05:23:59.044Z,102080.75
2022-09-05T05:26:37.022Z,102077.22
2022-09-05T05:29:10.569Z,102084.31
2022-09-05T05:31:49.875Z,102082.53
2022-09-05T05:34:25.194Z,102082.53
2022-09-05T05:37:18.699Z,102080.75
2022-09-05T05:39:57.956Z,102087.84
2022-09-05T05:42:26.592Z,102085.19
2022-09-05T05:44:59.327Z,102095.81
2022-09-05T05:47:37.062Z,102092.25
2022-09-05T05:50:42.581Z,102097.56
2022-09-05T05:53:33.429Z,102098.41
2022-09-05T05:56:33.824Z,102097.53
2022-09-05T05:59:56.390Z,102091.31
2022-09-05T06:03:25.149Z,102093.97
2022-09-05T06:06:27.213Z,102094.81
2022-09-05T06:14:47.882Z,102091.25
2022-09-05T06:15:00.478Z,102086.81
2022-09-05T06:15:38.038Z,102091.19
2022-09-05T06:18:45.876Z,102095.59
2022-09-05T06:22:15.817Z,102095.56
2022-09-05T06:25:07.703Z,102101.72
2022-09-05T06:28:18.953Z,102102.56
2022-09-05T06:31:29.804Z,102096.31
2022-09-05T06:34:20.594Z,102097.19
2022-09-05T06:37:07.575Z,102088.22
2022-09-05T06:40:17.747Z,102093.41
2022-09-05T06:43:32.807Z,102086.91
2022-09-05T06:46:54.332Z,102084.13
2022-09-05T06:49:30.624Z,102087.50
2022-09-05T06:52:41.112Z,102079.34
2022-09-05T06:55:09.475Z,102083.59
2022-09-05T06:58:17.860Z,102084.34
2022-09-05T07:00:48.663Z,102080.50
2022-09-05T07:03:42.182Z,102081.00
2022-09-05T07:07:01.138Z,102084.19
2022-09-05T07:09:39.459Z,102081.06
2022-09-05T07:12:23.853Z,102090.69
2022-09-05T07:14:56.322Z,102088.94
2022-09-05T07:18:13.224Z,102083.72
2022-09-05T07:21:17.411Z,102093.66
2022-09-05T07:24:06.506Z,102087.47
2022-09-05T07:26:51.637Z,102093.66
2022-09-05T07:29:30.273Z,102093.59
2022-09-05T07:32:02.588Z,102100.59
2022-09-05T07:34:33.590Z,102095.13
2022-09-05T07:37:15.162Z,102097.69
2022-09-05T07:40:24.856Z,102101.09
2022-09-05T07:43:09.288Z,102099.22
2022-09-05T07:45:55.742Z,102100.88
2022-09-05T07:48:34.563Z,102102.34
2022-09-05T07:55:46.410Z,102103.84
2022-09-05T07:57:08.836Z,102112.28
2022-09-05T07:57:25.482Z,102108.31
2022-09-05T07:59:48.025Z,102107.16
2022-09-05T08:02:19.808Z,102104.03
2022-09-05T08:04:48.335Z,102108.00
2022-09-05T08:07:46.594Z,102105.97
2022-09-05T08:11:24.358Z,102109.03
2022-09-05T08:13:48.249Z,102100.56
2022-09-05T08:16:25.584Z,102109.28
2022-09-05T08:19:27.237Z,102099.28
2022-09-05T08:22:00.051Z,102099.19
2022-09-05T08:24:44.126Z,102097.91
2022-09-05T08:27:24.053Z,102102.53
2022-09-05T08:30:25.719Z,102094.56
2022-09-05T08:33:10.260Z,102095.06
2022-09-05T08:36:14.083Z,102090.09
2022-09-05T08:38:45.691Z,102094.78
2022-09-05T08:41:14.198Z,102090.63
2022-09-05T08:46:37.791Z,102100.38
2022-09-05T08:46:53.649Z,102087.72
2022-09-05T08:49:46.338Z,102100.84
2022-09-05T08:52:22.686Z,102097.84
2022-09-05T08:55:26.674Z,102097.00
2022-09-05T08:58:00.860Z,102089.03
2022-09-05T09:00:38.668Z,102089.94
2022-09-05T09:03:28.902Z,102082.75
2022-09-05T09:06:13.238Z,102082.06
2022-09-05T09:09:03.351Z,102082.06
2022-09-05T09:11:44.131Z,102083.72
2022-09-05T09:14:57.848Z,102069.88
2022-09-05T09:17:37.665Z,102083.34
2022-09-05T09:20:14.772Z,102075.22
2022-09-05T09:23:29.790Z,102068.22
2022-09-05T09:26:13.411Z,102071.59
2022-09-05T09:29:11.312Z,102074.00
2022-09-05T09:32:02.152Z,102061.91
2022-09-05T09:34:38.342Z,102067.03
2022-09-05T09:37:49.824Z,102057.66
2022-09-05T09:40:52.256Z,102058.09
2022-09-05T09:43:44.258Z,102056.41
2022-09-05T09:46:31.695Z,102064.66
2022-09-05T09:49:22.974Z,102061.97
2022-09-05T09:52:23.859Z,102056.88
2022-09-05T09:55:28.518Z,102054.00
2022-09-05T09:58:22.672Z,102049.00
2022-09-05T10:01:36.569Z,102055.13
2022-09-05T10:10:35.371Z,102046.88
2022-09-05T10:10:52.199Z,102050.25
2022-09-05T10:14:02.893Z,102045.16
2022-09-05T10:16:42.479Z,102029.47
2022-09-05T10:22:47.603Z,102029.25
2022-09-05T10:25:47.209Z,102032.78
2022-09-05T10:28:37.672Z,102025.63
2022-09-05T10:33:58.371Z,102019.31
2022-09-05T10:35:13.150Z,102027.25
2022-09-05T10:37:12.401Z,102029.13
2022-09-05T10:39:51.026Z,102029.31
2022-09-05T10:42:59.899Z,102027.63
2022-09-05T10:45:53.125Z,102028.44
2022-09-05T10:48:38.481Z,102030.38
2022-09-05T10:51:27.044Z,102036.81
2022-09-05T10:54:03.967Z,102028.53
2022-09-05T10:56:47.801Z,102026.28
2022-09-05T11:02:23.254Z,102017.38
2022-09-05T11:02:34.713Z,102022.31
2022-09-05T11:05:29.594Z,102021.81
2022-09-05T11:08:17.856Z,102019.72
2022-09-05T11:11:01.365Z,102017.41
2022-09-05T11:13:43.341Z,102010.78
2022-09-05T11:16:52.593Z,102016.72
2022-09-05T11:19:39.766Z,102013.38
2022-09-05T11:22:23.064Z,102011.25
2022-09-05T11:24:58.818Z,102011.94
2022-09-05T11:27:36.301Z,102008.97
2022-09-05T11:30:28.948Z,102016.00
2022-09-05T11:37:27.330Z,102009.66
2022-09-05T11:40:04.229Z,102003.34
2022-09-05T11:40:05.248Z,102005.72
2022-09-05T11:42:43.171Z,101995.94
2022-09-05T11:46:02.397Z,101999.44
2022-09-05T11:49:04.329Z,101993.63
2022-09-05T11:51:54.673Z,101994.50
2022-09-05T11:54:41.461Z,101994.72
2022-09-05T11:57:34.382Z,101991.22
2022-09-05T12:00:32.431Z,101983.63
2022-09-05T12:03:41.414Z,101981.88
2022-09-05T12:06:24.332Z,101986.25
2022-09-05T12:09:04.884Z,101984.22
2022-09-05T12:11:47.245Z,101977.91
2022-09-05T12:14:42.446Z,101973.47
2022-09-05T12:17:35.002Z,101976.84
2022-09-05T12:20:17.086Z,101978.19
2022-09-05T12:23:51.412Z,101975.19
2022-09-05T12:27:39.964Z,101975.56
2022-09-05T12:29:37.384Z,101970.16
2022-09-05T12:33:32.727Z,101968.31
2022-09-05T12:36:10.454Z,101965.59
2022-09-05T12:39:36.682Z,101967.00
2022-09-05T12:42:10.482Z,101960.44
2022-09-05T12:44:44.754Z,101955.25
2022-09-05T12:47:21.110Z,101956.69
2022-09-05T12:50:14.922Z,101958.00
2022-09-05T12:52:52.489Z,101952.72
2022-09-05T12:55:31.138Z,101952.28
2022-09-05T13:02:55.731Z,101950.53
2022-09-05T13:03:11.871Z,101959.53
2022-09-05T13:04:20.217Z,101956.25
2022-09-05T13:07:01.222Z,101960.72
2022-09-05T13:10:47.524Z,101959.13
2022-09-05T13:14:56.314Z,101946.66
2022-09-05T13:15:36.533Z,101949.16
2022-09-05T13:18:13.158Z,101948.91
2022-09-05T13:20:51.748Z,101936.75
2022-09-05T13:23:33.144Z,101949.84
2022-09-05T13:26:10.273Z,101940.59
2022-09-05T13:28:52.896Z,101944.34
2022-09-05T13:38:02.114Z,101939.72
2022-09-05T13:38:04.486Z,101945.88
2022-09-05T13:38:14.178Z,101932.25
2022-09-05T13:40:40.274Z,101939.09
2022-09-05T13:43:29.816Z,101937.81
2022-09-05T13:46:19.277Z,101930.81
2022-09-05T13:52:21.897Z,101927.53
2022-09-05T13:54:55.493Z,101930.56
2022-09-05T13:57:34.780Z,101919.41
2022-09-05T14:00:27.011Z,101941.53
2022-09-05T14:03:38.799Z,101931.81
2022-09-05T14:06:36.587Z,101920.19
2022-09-05T14:09:48.297Z,101923.88
2022-09-05T14:12:29.445Z,101917.28
2022-09-05T14:15:26.318Z,101917.75
2022-09-05T14:18:00.724Z,101930.31
2022-09-05T14:20:53.312Z,101911.69
2022-09-05T14:23:27.390Z,101918.94
2022-09-05T14:26:00.657Z,101919.81
2022-09-05T14:28:46.670Z,101923.22
2022-09-05T14:34:05.764Z,101910.75
2022-09-05T14:37:36.686Z,101909.84
2022-09-05T14:37:41.744Z,101905.31
2022-09-05T14:40:38.191Z,101899.25
2022-09-05T14:43:31.314Z,101901.97
2022-09-05T14:46:28.076Z,101899.66
2022-09-05T14:49:18.582Z,101895.31
2022-09-05T14:51:50.918Z,101894.53
2022-09-05T15:02:11.184Z,101884.97
2022-09-05T15:02:53.352Z,101882.41
2022-09-05T15:03:04.255Z,101890.09
2022-09-05T15:05:41.037Z,101868.59
2022-09-05T15:08:24.051Z,101878.56
2022-09-05T15:12:16.062Z,101872.13
2022-09-05T15:14:04.893Z,101877.44
2022-09-05T15:16:38.792Z,101882.00
2022-09-05T15:19:10.277Z,101873.16
2022-09-05T15:21:42.519Z,101870.44
2022-09-05T15:24:24.918Z,101872.22
2022-09-05T15:27:01.290Z,101876.72
2022-09-05T15:29:35.405Z,101871.31
2022-09-05T15:32:25.079Z,101868.72
2022-09-05T15:34:56.301Z,101870.50
2022-09-05T15:37:43.582Z,101868.78
2022-09-05T15:40:24.003Z,101873.31
2022-09-05T15:42:57.838Z,101865.34
2022-09-05T15:45:37.675Z,101871.63
2022-09-05T15:48:12.797Z,101871.69
2022-09-05T15:50:51.426Z,101861.91
2022-09-05T15:53:30.039Z,101862.94
2022-09-05T15:56:16.946Z,101860.47
2022-09-05T15:58:56.137Z,101851.63
2022-09-05T16:01:31.200Z,101851.78
2022-09-05T16:07:59.885Z,101858.38
2022-09-05T16:10:36.344Z,101856.78
2022-09-05T16:10:42.869Z,101852.44
2022-09-05T16:13:35.216Z,101857.09
2022-09-05T16:20:34.583Z,101858.97
2022-09-05T16:23:16.961Z,101854.69
2022-09-05T16:23:26.367Z,101849.44
2022-09-05T16:25:11.104Z,101845.09
2022-09-05T16:27:45.778Z,101850.69
2022-09-05T16:30:29.324Z,101843.66
2022-09-05T16:33:02.618Z,101841.16
2022-09-05T16:35:37.028Z,101842.19
2022-09-05T16:38:48.482Z,101835.19
2022-09-05T16:41:43.196Z,101837.16
2022-09-05T16:44:35.680Z,101833.78
2022-09-05T16:47:12.195Z,101837.66
2022-09-05T16:49:57.381Z,101833.28
2022-09-05T16:52:53.695Z,101832.59
2022-09-05T16:55:48.602Z,101825.59
2022-09-05T16:58:33.553Z,101822.22
2022-09-05T17:01:15.820Z,101826.91
2022-09-05T17:04:05.309Z,101823.56
2022-09-05T17:06:45.800Z,101812.09
2022-09-05T17:09:24.369Z,101820.31
2022-09-05T17:12:01.982Z,101811.50
2022-09-05T17:14:39.205Z,101811.72
2022-09-05T17:17:20.101Z,101806.59
2022-09-05T17:20:15.268Z,101810.44
2022-09-05T17:29:20.110Z,101825.16
2022-09-05T17:29:27.752Z,101812.19
2022-09-05T17:29:31.064Z,101812.81
2022-09-05T17:31:56.465Z,101810.72
2022-09-05T17:34:47.719Z,101810.91
2022-09-05T17:37:29.311Z,101812.16
2022-09-05T17:40:12.735Z,101811.47
2022-09-05T17:43:02.111Z,101813.47
2022-09-05T17:45:57.050Z,101813.78
2022-09-05T17:49:07.054Z,101807.75
2022-09-05T17:51:35.705Z,101810.88
2022-09-05T17:54:06.351Z,101801.28
2022-09-05T17:56:49.976Z,101799.72
2022-09-05T17:59:19.419Z,101804.41
2022-09-05T18:02:03.347Z,101797.50
2022-09-05T18:04:45.738Z,101809.44
2022-09-05T18:07:23.132Z,101806.13
2022-09-05T18:10:03.565Z,101808.09
2022-09-05T18:13:31.450Z,101807.44
2022-09-05T18:15:40.259Z,101814.91
2022-09-05T18:18:11.876Z,101817.84
2022-09-05T18:21:21.842Z,101808.13
2022-09-05T18:24:02.347Z,101813.72
2022-09-05T18:26:40.050Z,101815.75
2022-09-05T18:29:14.307Z,101828.38
2022-09-05T18:31:43.813Z,101827.56
2022-09-05T18:34:16.424Z,101826.75
2022-09-05T18:36:50.562Z,101834.06
2022-09-05T18:39:29.390Z,101835.03
2022-09-05T18:42:33.614Z,101837.84
2022-09-05T18:45:14.604Z,101837.91
2022-09-05T18:47:57.326Z,101833.56
2022-09-05T18:50:33.773Z,101835.47
2022-09-05T18:53:10.531Z,101835.56
2022-09-05T18:56:20.090Z,101837.53
2022-09-05T18:58:53.390Z,101840.34
2022-09-05T19:02:06.807Z,101836.06
2022-09-05T19:05:02.548Z,101840.81
2022-09-05T19:07:48.347Z,101842.00
2022-09-05T19:10:34.494Z,101855.59
2022-09-05T19:13:19.603Z,101840.50
2022-09-05T19:16:21.217Z,101843.28
2022-09-05T19:19:06.801Z,101838.06
2022-09-05T19:21:39.182Z,101837.25
2022-09-05T19:24:11.465Z,101845.41
2022-09-05T19:26:40.630Z,101838.38
2022-09-05T19:36:49.126Z,101835.78
2022-09-05T19:37:13.589Z,101838.81
2022-09-05T19:37:15.604Z,101835.09
2022-09-05T19:37:48.984Z,101836.22
2022-09-05T19:44:23.717Z,101832.81
2022-09-05T19:47:41.034Z,101842.78
2022-09-05T19:47:47.914Z,101841.19
2022-09-05T19:49:08.314Z,101845.84
2022-09-05T19:51:38.037Z,101850.41
2022-09-05T19:54:07.310Z,101862.19
2022-09-05T19:56:46.290Z,101854.31
2022-09-05T19:59:20.322Z,101854.44
2022-09-05T20:01:50.501Z,101845.66
2022-09-05T20:04:21.661Z,101852.06
2022-09-05T20:06:50.402Z,101838.84
2022-09-05T20:09:22.549Z,101849.66
2022-09-05T20:11:57.920Z,101847.09
2022-09-05T20:14:30.477Z,101839.06
2022-09-05T20:17:17.424Z,101837.28
2022-09-05T20:19:45.871Z,101840.03
2022-09-05T20:22:47.900Z,101840.97
2022-09-05T20:25:36.762Z,101844.63
2022-09-05T20:28:37.828Z,101846.47
2022-09-05T20:31:20.585Z,101841.19
2022-09-05T20:33:53.196Z,101831.41
2022-09-05T20:43:11.040Z,101827.88
2022-09-05T20:43:16.384Z,101843.09
2022-09-05T20:43:17.116Z,101832.34
2022-09-05T20:45:48.409Z,101843.09
2022-09-05T20:54:04.547Z,101836.03
2022-09-05T20:54:21.962Z,101842.34
2022-09-05T20:54:33.008Z,101830.81
2022-09-05T20:56:56.901Z,101828.22
2022-09-05T20:59:34.808Z,101830.00
2022-09-05T21:02:10.049Z,101825.44
2022-09-05T21:04:38.832Z,101824.59
2022-09-05T21:07:14.155Z,101835.34
2022-09-05T21:09:52.725Z,101847.88
2022-09-05T21:12:44.781Z,101837.13
2022-09-05T21:15:52.345Z,101835.31
2022-09-05T21:18:22.479Z,101829.94
2022-09-05T21:20:58.046Z,101839.81
2022-09-05T21:23:29.016Z,101836.31
2022-09-05T21:26:22.542Z,101821.09
2022-09-05T21:29:13.898Z,101828.44
2022-09-05T21:31:54.484Z,101824.91
2022-09-05T21:34:28.170Z,101827.69
2022-09-05T21:37:06.693Z,101827.72
2022-09-05T21:39:42.914Z,101825.03
2022-09-05T21:44:40.835Z,101820.66
2022-09-05T21:47:42.997Z,101826.94
2022-09-05T21:48:04.718Z,101819.91
2022-09-05T21:50:39.681Z,101823.56
2022-09-05T21:58:13.058Z,101815.63
2022-09-05T21:59:29.496Z,101821.09
2022-09-05T21:59:33.444Z,101813.13
2022-09-05T22:02:00.413Z,101813.19
2022-09-05T22:04:29.743Z,101807.94
2022-09-05T22:07:02.747Z,101815.16
2022-09-05T22:09:31.305Z,101814.34
2022-09-05T22:12:00.060Z,101802.78
2022-09-05T22:14:34.933Z,101821.63
2022-09-05T22:17:03.750Z,101802.06
2022-09-05T22:19:37.477Z,101799.47
2022-09-05T22:22:16.468Z,101804.94
2022-09-05T22:24:52.169Z,101805.88
2022-09-05T22:27:22.153Z,101810.47
2022-09-05T22:29:51.807Z,101806.00
2022-09-05T22:32:34.049Z,101805.28
2022-09-05T22:35:27.996Z,101797.31
2022-09-05T22:38:10.582Z,101804.56
2022-09-05T22:40:41.781Z,101799.31
2022-09-05T22:43:13.103Z,101795.84
2022-09-05T22:45:41.625Z,101784.28
2022-09-05T22:48:12.982Z,101788.84
2022-09-05T22:50:42.755Z,101784.38
2022-09-05T22:53:11.191Z,101779.09
2022-09-05T22:55:42.148Z,101769.38
2022-09-05T22:58:13.361Z,101761.38
2022-09-05T23:00:44.148Z,101766.78
2022-09-05T23:03:12.473Z,101760.66
2022-09-05T23:05:40.790Z,101758.06
2022-09-05T23:08:09.513Z,101754.56
2022-09-05T23:10:37.888Z,101750.22
2022-09-05T23:13:09.442Z,101751.22
2022-09-05T23:15:38.831Z,101750.41
2022-09-05T23:18:08.657Z,101748.69
2022-09-05T23:20:36.962Z,101744.34
2022-09-05T23:23:06.698Z,101749.75
2022-09-05T23:25:35.888Z,101743.53
2022-09-05T23:28:08.662Z,101733.75
2022-09-05T23:30:38.997Z,101730.25
2022-09-05T23:33:11.077Z,101729.41
2022-09-05T23:35:40.088Z,101718.78
2022-09-05T23:38:10.591Z,101717.94
2022-09-05T23:40:39.053Z,101716.28
2022-09-05T23:43:07.542Z,101710.97
2022-09-05T23:45:35.874Z,101712.84
2022-09-05T23:48:04.336Z,101707.56
2022-09-05T23:50:32.673Z,101703.19
2022-09-05T23:53:04.315Z,101712.19
2022-09-05T23:55:33.991Z,101702.44
2022-09-05T23:58:02.691Z,101696.22
